Time;durP1;ratioP1;P1;durP2;ratioP2;P2;SDS_P1;SDS_P2;PMS_P1;PMS_P2;Temp;Humidity;BMP_temperature;BMP_pressure;BME280_temperature;BME280_humidity;BME280_pressure;Samples;Min_cycle;Max_cycle;Signal;HPM_P1;HPM_P2
2021/08/01 04:01:57;;;;;;;4.00;2.50;;;12.30;96.30;;;;;;5228684;23;20544;-72
2021/08/01 04:04:23;;;;;;;4.43;2.63;;;12.30;96.30;;;;;;4936770;29;21014;-74
2021/08/01 04:06:48;;;;;;;3.17;2.60;;;12.40;96.30;;;;;;4919705;29;20424;-72
2021/08/01 04:09:14;;;;;;;2.90;2.50;;;12.40;96.30;;;;;;4936960;29;20594;-72
2021/08/01 04:11:43;;;;;;;3.60;2.50;;;12.40;96.30;;;;;;4936067;29;20278;-73
2021/08/01 04:14:09;;;;;;;3.50;2.30;;;12.40;96.30;;;;;;4937123;29;20685;-71
2021/08/01 04:16:36;;;;;;;4.17;2.73;;;12.40;96.30;;;;;;4922558;29;20427;-71
2021/08/01 04:19:01;;;;;;;3.97;2.20;;;;;;;;;;4943382;29;20234;-71
2021/08/01 04:21:27;;;;;;;2.90;2.60;;;12.40;96.30;;;;;;4939009;29;20447;-72
2021/08/01 04:23:52;;;;;;;7.90;3.00;;;12.40;96.30;;;;;;4919579;29;20175;-71
2021/08/01 04:26:18;;;;;;;3.10;2.30;;;12.40;96.30;;;;;;4954702;29;20183;-73
2021/08/01 04:28:44;;;;;;;4.97;2.40;;;;;;;;;;4938246;29;20174;-74
2021/08/01 04:31:09;;;;;;;6.30;2.63;;;12.50;96.30;;;;;;4937706;29;20195;-73
2021/08/01 04:33:35;;;;;;;4.33;2.40;;;12.50;96.30;;;;;;4955014;29;20226;-73
2021/08/01 04:36:01;;;;;;;5.53;2.20;;;12.50;96.30;;;;;;4955416;29;20643;-73
2021/08/01 04:38:26;;;;;;;5.37;2.67;;;12.50;96.30;;;;;;4955379;29;20478;-73
2021/08/01 04:40:52;;;;;;;5.10;2.80;;;;;;;;;;4955180;28;20659;-73
2021/08/01 04:43:18;;;;;;;3.43;2.20;;;12.60;96.30;;;;;;4937424;29;20183;-73
2021/08/01 04:45:43;;;;;;;4.80;2.67;;;12.60;96.30;;;;;;4955203;29;20460;-73
2021/08/01 04:48:09;;;;;;;2.50;2.30;;;12.70;96.30;;;;;;4955422;29;20226;-73
2021/08/01 04:50:35;;;;;;;5.20;2.37;;;;;;;;;;4955063;28;20191;-76
2021/08/01 04:53:01;;;;;;;5.53;2.30;;;;;;;;;;4954670;29;20175;-73
2021/08/01 04:55:26;;;;;;;2.90;2.60;;;12.80;96.30;;;;;;4919651;29;20994;-73
2021/08/01 04:57:51;;;;;;;2.67;2.43;;;12.70;96.30;;;;;;4935709;29;20198;-73
2021/08/01 05:00:17;;;;;;;3.83;2.50;;;12.70;96.30;;;;;;4935980;29;20179;-74
2021/08/01 05:02:43;;;;;;;4.50;2.13;;;12.80;96.30;;;;;;4918632;29;20290;-73
2021/08/01 05:05:09;;;;;;;2.43;2.13;;;12.80;96.30;;;;;;4937880;29;20203;-73
2021/08/01 05:07:34;;;;;;;5.57;2.70;;;12.90;96.30;;;;;;4938171;29;20183;-73
2021/08/01 05:10:00;;;;;;;7.77;3.60;;;13.00;96.30;;;;;;4950598;29;20794;-74
2021/08/01 05:12:26;;;;;;;7.33;2.30;;;13.00;96.30;;;;;;4918500;29;20203;-73
2021/08/01 05:14:52;;;;;;;5.70;2.90;;;13.10;96.30;;;;;;4945568;29;20187;-74
2021/08/01 05:17:18;;;;;;;4.93;2.33;;;;;;;;;;4955208;29;20756;-75
2021/08/01 05:19:43;;;;;;;6.00;2.20;;;13.20;96.30;;;;;;4955019;29;20564;-73
2021/08/01 05:22:09;;;;;;;6.43;2.40;;;13.20;96.30;;;;;;4954579;29;20203;-73
2021/08/01 05:24:36;;;;;;;4.30;2.70;;;13.30;96.30;;;;;;4935818;29;20282;-73
2021/08/01 05:27:02;;;;;;;3.13;2.00;;;13.30;96.30;;;;;;4935957;29;20450;-74
2021/08/01 05:29:27;;;;;;;3.20;2.40;;;13.30;96.30;;;;;;4944647;29;20424;-73
2021/08/01 05:31:54;;;;;;;3.70;2.57;;;13.30;96.30;;;;;;4954546;28;20211;-73
2021/08/01 05:34:20;;;;;;;2.43;2.17;;;;;;;;;;4954975;29;20179;-75
2021/08/01 05:36:46;;;;;;;5.53;2.17;;;;;;;;;;4954641;29;20408;-75
2021/08/01 05:39:12;;;;;;;3.03;2.20;;;13.40;96.30;;;;;;4937639;29;20974;-73
2021/08/01 05:41:38;;;;;;;3.40;2.30;;;;;;;;;;4951595;28;20840;-73
2021/08/01 05:44:04;;;;;;;3.70;2.30;;;13.30;96.30;;;;;;4937576;29;20558;-73
2021/08/01 05:46:29;;;;;;;3.40;2.20;;;13.20;96.30;;;;;;4954220;29;20221;-73
2021/08/01 05:48:55;;;;;;;4.30;2.90;;;13.20;96.30;;;;;;4954645;29;20182;-74
2021/08/01 05:51:20;;;;;;;4.77;2.30;;;13.30;96.30;;;;;;4936958;29;20195;-77
2021/08/01 05:53:46;;;;;;;4.13;2.57;;;13.40;96.30;;;;;;4953550;29;20179;-77
2021/08/01 05:56:12;;;;;;;3.87;2.30;;;13.50;96.30;;;;;;4953724;29;20175;-75
2021/08/01 05:58:39;;;;;;;3.00;2.37;;;13.50;96.30;;;;;;4954182;29;20258;-77
2021/08/01 06:01:07;;;;;;;3.83;2.30;;;13.50;96.30;;;;;;4953878;29;20462;-76
2021/08/01 06:03:33;;;;;;;2.90;1.97;;;13.50;96.30;;;;;;4953342;29;20505;-76
2021/08/01 06:06:07;;;;;;;3.80;2.50;;;13.50;96.30;;;;;;4953719;29;20605;-77
2021/08/01 06:08:33;;;;;;;3.60;2.40;;;;;;;;;;4953612;29;20162;-77
2021/08/01 06:10:59;;;;;;;3.20;2.10;;;13.70;96.30;;;;;;4953965;28;20431;-76
2021/08/01 06:13:25;;;;;;;6.37;2.50;;;;;;;;;;4953159;29;20202;-76
2021/08/01 06:15:50;;;;;;;4.30;2.30;;;13.90;96.30;;;;;;4953830;29;20211;-75
2021/08/01 06:18:15;;;;;;;4.90;2.90;;;14.00;96.30;;;;;;4953808;29;20275;-76
2021/08/01 06:20:41;;;;;;;2.60;2.40;;;14.10;96.30;;;;;;4953752;29;20194;-77
2021/08/01 06:23:06;;;;;;;16.47;2.70;;;14.20;96.30;;;;;;4953492;29;20515;-76
2021/08/01 06:25:35;;;;;;;3.40;3.00;;;14.30;96.30;;;;;;4942308;29;20203;-76
2021/08/01 06:28:00;;;;;;;3.33;2.37;;;14.30;96.30;;;;;;4934868;29;20255;-76
2021/08/01 06:30:26;;;;;;;5.70;2.70;;;14.40;96.30;;;;;;4940392;29;20439;-75
2021/08/01 06:32:51;;;;;;;3.83;2.20;;;14.30;96.30;;;;;;4935312;29;20180;-73
2021/08/01 06:35:17;;;;;;;2.97;1.87;;;14.30;96.30;;;;;;4935729;29;20180;-73
2021/08/01 06:37:42;;;;;;;4.53;2.40;;;;;;;;;;4937181;29;20655;-76
2021/08/01 06:40:10;;;;;;;4.60;2.90;;;14.20;96.30;;;;;;4937114;29;20222;-75
2021/08/01 06:42:36;;;;;;;3.30;2.50;;;14.20;96.30;;;;;;4954076;29;20175;-73
2021/08/01 06:45:01;;;;;;;5.03;2.87;;;14.10;96.30;;;;;;4954460;29;20980;-73
2021/08/01 06:47:27;;;;;;;4.90;3.43;;;14.20;96.30;;;;;;4954737;29;20183;-73
2021/08/01 06:49:52;;;;;;;5.13;3.43;;;14.20;96.30;;;;;;4954683;29;20513;-75
2021/08/01 06:52:18;;;;;;;3.27;2.73;;;;;;;;;;4953915;28;20199;-73
2021/08/01 06:54:44;;;;;;;3.70;3.27;;;14.20;96.30;;;;;;4957926;29;20175;-73
2021/08/01 06:57:09;;;;;;;3.00;2.70;;;14.20;96.30;;;;;;4958610;29;20187;-74
2021/08/01 06:59:35;;;;;;;5.23;2.90;;;14.20;96.30;;;;;;4960711;29;20180;-77
2021/08/01 07:02:01;;;;;;;2.80;2.47;;;14.20;96.30;;;;;;4941390;29;20226;-74
2021/08/01 07:04:26;;;;;;;4.90;2.77;;;14.30;96.30;;;;;;4939627;29;20211;-75
2021/08/01 07:06:51;;;;;;;5.00;2.70;;;14.30;96.30;;;;;;4939573;29;20262;-75
2021/08/01 07:09:17;;;;;;;5.03;3.30;;;14.40;96.30;;;;;;4946787;29;20186;-77
2021/08/01 07:11:42;;;;;;;8.20;2.97;;;14.50;96.30;;;;;;4958061;29;20199;-75
2021/08/01 07:14:08;;;;;;;3.00;2.70;;;14.50;96.30;;;;;;4959488;29;20197;-75
2021/08/01 07:16:33;;;;;;;4.57;2.80;;;14.50;96.30;;;;;;4952388;29;20198;-73
2021/08/01 07:18:59;;;;;;;3.33;2.60;;;;;;;;;;4956964;29;20683;-75
2021/08/01 07:21:25;;;;;;;5.20;2.57;;;14.30;96.30;;;;;;4951024;28;20210;-75
2021/08/01 07:23:51;;;;;;;2.47;2.27;;;;;;;;;;4957253;29;20233;-73
2021/08/01 07:26:18;;;;;;;6.30;3.27;;;14.30;96.30;;;;;;4957102;29;20175;-73
2021/08/01 07:28:44;;;;;;;2.90;2.30;;;14.20;96.30;;;;;;4957552;29;20163;-74
2021/08/01 07:31:09;;;;;;;4.60;2.77;;;14.20;96.30;;;;;;4956925;28;20993;-72
2021/08/01 07:33:35;;;;;;;3.90;2.87;;;14.30;96.30;;;;;;4956920;29;20765;-72
2021/08/01 07:36:02;;;;;;;4.50;2.50;;;14.30;96.30;;;;;;4956306;29;20187;-73
2021/08/01 07:38:27;;;;;;;7.37;2.53;;;14.40;96.30;;;;;;4956374;29;20199;-72
2021/08/01 07:40:53;;;;;;;6.87;2.77;;;14.40;96.30;;;;;;4956367;29;20969;-75
2021/08/01 07:43:18;;;;;;;3.60;2.80;;;;;;;;;;4950224;29;20191;-74
2021/08/01 07:45:44;;;;;;;8.37;3.00;;;;;;;;;;4946840;29;20207;-71
2021/08/01 07:48:10;;;;;;;3.40;3.10;;;14.50;96.30;;;;;;4956275;29;20631;-71
2021/08/01 07:50:35;;;;;;;6.23;3.37;;;14.50;96.30;;;;;;4956142;29;20191;-71
2021/08/01 07:53:01;;;;;;;7.10;3.60;;;14.40;96.30;;;;;;4955609;29;20176;-72
2021/08/01 07:55:26;;;;;;;2.93;2.73;;;14.40;96.30;;;;;;4956138;29;20647;-71
2021/08/01 07:57:52;;;;;;;3.80;3.40;;;;;;;;;;4954067;29;20186;-78
2021/08/01 08:00:18;;;;;;;3.80;3.20;;;14.40;96.30;;;;;;4952555;28;20532;-72
2021/08/01 08:02:44;;;;;;;2.93;2.53;;;14.50;96.30;;;;;;4953864;29;20191;-72
2021/08/01 08:05:10;;;;;;;3.70;3.10;;;14.60;96.30;;;;;;4947609;28;20203;-71
2021/08/01 08:07:36;;;;;;;5.70;2.80;;;14.70;96.30;;;;;;4949980;29;21026;-71
2021/08/01 08:10:03;;;;;;;3.53;3.10;;;14.80;96.30;;;;;;4955309;29;20510;-72
2021/08/01 08:12:29;;;;;;;5.10;3.07;;;14.80;96.30;;;;;;4954570;29;20273;-71
2021/08/01 08:14:54;;;;;;;13.27;3.73;;;14.90;96.30;;;;;;4951450;29;20469;-71
2021/08/01 08:17:20;;;;;;;4.83;3.57;;;15.00;96.30;;;;;;4943285;29;20183;-71
2021/08/01 08:19:45;;;;;;;4.60;3.27;;;15.10;96.30;;;;;;4948047;29;20655;-70
2021/08/01 08:22:11;;;;;;;6.30;3.17;;;15.10;96.30;;;;;;4935744;29;20196;-71
2021/08/01 08:24:37;;;;;;;4.50;4.03;;;15.10;96.30;;;;;;4939469;29;20231;-70
2021/08/01 08:27:03;;;;;;;5.60;4.10;;;15.10;96.30;;;;;;4955159;29;20175;-70
2021/08/01 08:29:28;;;;;;;4.37;3.33;;;15.10;96.30;;;;;;4955189;29;20418;-71
2021/08/01 08:31:55;;;;;;;9.20;3.70;;;15.30;96.30;;;;;;4954259;28;20458;-70
2021/08/01 08:34:22;;;;;;;8.77;3.47;;;15.40;96.30;;;;;;4954781;29;20183;-72
2021/08/01 08:36:49;;;;;;;6.10;3.20;;;15.40;96.30;;;;;;4954868;29;20604;-70
2021/08/01 08:39:16;;;;;;;4.37;2.73;;;15.40;96.30;;;;;;4954899;29;20418;-70
2021/08/01 08:41:42;;;;;;;4.10;2.97;;;15.50;96.30;;;;;;4954009;29;20453;-70
2021/08/01 08:44:08;;;;;;;4.80;2.93;;;15.50;96.30;;;;;;4954559;29;20454;-69
2021/08/01 08:46:38;;;;;;;4.83;3.13;;;15.60;96.30;;;;;;4954576;29;20238;-70
2021/08/01 08:49:08;;;;;;;4.73;3.27;;;15.60;96.30;;;;;;4954667;29;20414;-68
2021/08/01 08:51:36;;;;;;;3.83;2.97;;;15.60;96.30;;;;;;4954270;29;20426;-68
2021/08/01 08:54:06;;;;;;;5.40;3.70;;;15.40;96.30;;;;;;4935582;29;20413;-68
2021/08/01 08:56:31;;;;;;;5.77;3.40;;;15.40;96.30;;;;;;4927600;29;20434;-68
2021/08/01 08:58:57;;;;;;;6.50;4.73;;;15.40;96.30;;;;;;4954294;29;20422;-72
2021/08/01 09:01:23;;;;;;;6.97;2.90;;;15.60;96.30;;;;;;4953135;29;20695;-71
2021/08/01 09:03:49;;;;;;;4.93;3.20;;;15.80;96.30;;;;;;4954100;29;20461;-73
2021/08/01 09:06:15;;;;;;;3.13;2.73;;;16.00;96.30;;;;;;4954046;29;20667;-73
2021/08/01 09:08:41;;;;;;;6.73;2.83;;;16.00;96.30;;;;;;4954315;29;20254;-72
2021/08/01 09:11:06;;;;;;;6.63;3.03;;;16.30;96.30;;;;;;4954174;28;20648;-72
2021/08/01 09:13:46;;;;;;;4.13;2.63;;;16.60;96.30;;;;;;4953881;29;20171;-72
2021/08/01 09:16:12;;;;;;;4.20;2.60;;;16.90;96.30;;;;;;4954186;28;20175;-72
2021/08/01 09:18:38;;;;;;;4.43;3.00;;;17.20;96.30;;;;;;4954173;29;20410;-72
2021/08/01 09:21:04;;;;;;;4.87;3.80;;;17.30;96.30;;;;;;4954079;28;20446;-73
2021/08/01 09:23:29;;;;;;;3.67;2.77;;;17.30;96.30;;;;;;4953562;29;20171;-74
2021/08/01 09:26:05;;;;;;;6.00;3.23;;;17.20;96.30;;;;;;4954003;29;20218;-74
2021/08/01 09:28:31;;;;;;;4.67;3.07;;;17.20;96.30;;;;;;4954104;29;20171;-73
2021/08/01 09:31:04;;;;;;;6.60;2.80;;;17.40;96.30;;;;;;4953976;29;20431;-73
2021/08/01 09:33:41;;;;;;;4.30;3.40;;;17.40;96.30;;;;;;4953577;29;20481;-73
2021/08/01 09:36:12;;;;;;;3.10;2.60;;;17.20;96.30;;;;;;4953807;29;20402;-74
2021/08/01 09:38:54;;;;;;;3.40;2.60;;;17.10;96.30;;;;;;4954075;29;20411;-74
2021/08/01 09:41:34;;;;;;;4.20;2.60;;;17.10;96.30;;;;;;4953549;29;20442;-74
2021/08/01 09:44:03;;;;;;;4.67;2.80;;;17.00;96.30;;;;;;4953359;29;20422;-75
2021/08/01 09:46:39;;;;;;;2.50;2.30;;;17.10;96.30;;;;;;4953873;29;20414;-75
2021/08/01 09:49:16;;;;;;;7.90;3.23;;;17.20;96.30;;;;;;4953660;29;20497;-76
2021/08/01 09:51:44;;;;;;;3.87;3.47;;;17.30;96.30;;;;;;4953089;29;20430;-75
2021/08/01 09:54:11;;;;;;;4.13;3.27;;;17.50;96.30;;;;;;4954140;29;20918;-75
2021/08/01 09:56:38;;;;;;;3.27;2.97;;;17.70;96.30;;;;;;4936642;29;20423;-76
2021/08/01 09:59:03;;;;;;;3.77;3.17;;;17.80;96.30;;;;;;4953614;29;20415;-76
2021/08/01 10:01:30;;;;;;;6.37;3.93;;;18.00;96.30;;;;;;4952892;29;20457;-75
2021/08/01 10:03:56;;;;;;;10.63;3.60;;;18.00;96.30;;;;;;4953585;29;20179;-75
2021/08/01 10:06:23;;;;;;;3.60;3.27;;;18.10;96.30;;;;;;4953518;29;20417;-75
2021/08/01 10:08:50;;;;;;;6.53;3.07;;;18.20;96.30;;;;;;4936180;29;20417;-74
2021/08/01 10:11:21;;;;;;;3.43;3.13;;;18.30;96.30;;;;;;4953308;29;20441;-76
2021/08/01 10:13:50;;;;;;;4.17;2.83;;;18.20;96.30;;;;;;4952653;29;20865;-76
2021/08/01 10:16:15;;;;;;;3.63;2.67;;;18.00;96.30;;;;;;4954019;29;20473;-74
2021/08/01 10:18:43;;;;;;;6.17;2.63;;;18.10;96.30;;;;;;4954887;29;20410;-72
2021/08/01 10:21:11;;;;;;;5.40;3.07;;;18.40;96.30;;;;;;4953797;29;20190;-73
2021/08/01 10:23:43;;;;;;;3.40;2.70;;;18.40;96.30;;;;;;4953118;29;20414;-73
2021/08/01 10:26:09;;;;;;;3.20;2.90;;;18.60;96.30;;;;;;4953854;29;20454;-73
2021/08/01 10:28:40;;;;;;;3.53;3.17;;;18.80;96.30;;;;;;4938370;29;20949;-73
2021/08/01 10:31:12;;;;;;;7.57;3.40;;;18.80;96.30;;;;;;4957550;29;20438;-73
2021/08/01 10:33:46;;;;;;;5.20;3.30;;;18.90;96.30;;;;;;4957327;29;20486;-73
2021/08/01 10:36:17;;;;;;;4.33;3.37;;;19.00;96.30;;;;;;4957503;29;20765;-73
2021/08/01 10:38:43;;;;;;;7.13;3.50;;;18.80;96.30;;;;;;4957524;29;20394;-74
2021/08/01 10:41:10;;;;;;;3.30;3.00;;;18.70;96.30;;;;;;4957333;29;20773;-73
2021/08/01 10:43:37;;;;;;;4.23;3.60;;;18.60;96.30;;;;;;4956906;29;20163;-73
2021/08/01 10:46:03;;;;;;;8.30;4.43;;;18.50;96.30;;;;;;4957335;29;20549;-77
2021/08/01 10:48:30;;;;;;;4.57;4.00;;;18.50;96.30;;;;;;4957211;29;20778;-77
2021/08/01 10:50:57;;;;;;;4.30;3.90;;;18.50;96.30;;;;;;4957269;29;20433;-74
2021/08/01 10:53:24;;;;;;;4.03;3.63;;;18.60;96.30;;;;;;4956824;29;20903;-73
2021/08/01 10:56:08;;;;;;;5.10;4.30;;;18.60;96.30;;;;;;4940001;29;20425;-74
2021/08/01 10:58:37;;;;;;;4.77;3.70;;;18.70;96.30;;;;;;4957283;29;20418;-74
2021/08/01 11:01:04;;;;;;;7.13;3.90;;;18.90;96.30;;;;;;4956815;29;21044;-74
2021/08/01 11:03:33;;;;;;;5.50;4.33;;;19.00;96.30;;;;;;4956335;29;20410;-73
2021/08/01 11:05:59;;;;;;;6.83;3.90;;;19.10;96.30;;;;;;4956960;29;20541;-73
2021/08/01 11:08:25;;;;;;;4.00;3.70;;;19.60;96.30;;;;;;4957001;29;20622;-73
2021/08/01 11:11:14;;;;;;;6.03;3.57;;;19.50;96.30;;;;;;4956806;29;20426;-73
2021/08/01 11:13:49;;;;;;;7.57;4.07;;;19.50;96.30;;;;;;4956345;29;20489;-73
2021/08/01 11:16:40;;;;;;;3.90;3.50;;;19.70;96.30;;;;;;4956771;29;20421;-73
2021/08/01 11:19:32;;;;;;;5.20;3.00;;;20.00;96.30;;;;;;4943838;29;20434;-73
2021/08/01 11:21:58;;;;;;;5.03;2.60;;;20.30;96.30;;;;;;4956145;29;20839;-75
2021/08/01 11:24:23;;;;;;;2.97;2.70;;;20.20;96.30;;;;;;4939507;29;20542;-72
2021/08/01 11:27:04;;;;;;;4.93;3.03;;;20.20;96.30;;;;;;4956644;29;20186;-73
2021/08/01 11:29:29;;;;;;;3.47;3.00;;;19.90;96.30;;;;;;4956564;29;20180;-73
2021/08/01 11:32:06;;;;;;;3.20;2.90;;;19.40;96.30;;;;;;4955948;29;20994;-73
2021/08/01 11:34:32;;;;;;;6.80;3.87;;;18.90;96.30;;;;;;4956670;29;20185;-76
2021/08/01 11:37:18;;;;;;;9.23;3.70;;;18.40;96.30;;;;;;4956470;29;20426;-72
2021/08/01 11:39:55;;;;;;;4.43;2.93;;;18.00;96.30;;;;;;4955270;28;20167;-72
2021/08/01 11:42:30;;;;;;;3.63;2.93;;;17.50;96.30;;;;;;4956098;29;20944;-75
2021/08/01 11:45:00;;;;;;;3.13;2.80;;;17.50;96.30;;;;;;4955986;29;20450;-73
2021/08/01 11:47:27;;;;;;;5.13;3.10;;;17.50;96.30;;;;;;4956353;29;20423;-73
2021/08/01 11:49:54;;;;;;;5.97;3.20;;;17.60;96.30;;;;;;4956192;29;20443;-73
2021/08/01 11:52:44;;;;;;;6.70;2.57;;;17.70;96.30;;;;;;4938392;29;20518;-72
2021/08/01 11:55:12;;;;;;;6.07;3.17;;;17.40;96.30;;;;;;4938927;29;20413;-73
2021/08/01 11:57:38;;;;;;;6.20;2.90;;;17.30;96.30;;;;;;4956057;29;20415;-73
2021/08/01 12:00:05;;;;;;;2.97;2.70;;;17.30;96.30;;;;;;4956052;29;20419;-72
2021/08/01 12:02:31;;;;;;;8.30;3.40;;;17.40;96.30;;;;;;4955287;29;20935;-72
2021/08/01 12:05:00;;;;;;;10.50;3.87;;;17.60;96.30;;;;;;4955899;29;20546;-72
2021/08/01 12:07:42;;;;;;;3.47;3.00;;;17.50;96.30;;;;;;4955898;29;20179;-74
2021/08/01 12:10:18;;;;;;;4.80;3.10;;;17.50;96.30;;;;;;4955857;29;20417;-75
2021/08/01 12:12:44;;;;;;;5.63;3.57;;;17.60;96.30;;;;;;4955262;29;20422;-73
2021/08/01 12:15:10;;;;;;;10.80;3.80;;;17.50;96.30;;;;;;4955459;29;20422;-75
2021/08/01 12:17:36;;;;;;;4.47;3.40;;;17.60;96.30;;;;;;4955646;29;20410;-75
2021/08/01 12:20:03;;;;;;;6.07;3.70;;;17.60;96.30;;;;;;4955905;29;20322;-72
2021/08/01 12:22:28;;;;;;;10.03;3.47;;;17.40;96.30;;;;;;4955088;29;20560;-73
2021/08/01 12:24:59;;;;;;;6.30;3.40;;;17.50;96.30;;;;;;4955516;29;20450;-72
2021/08/01 12:27:35;;;;;;;4.00;3.60;;;17.60;96.30;;;;;;4955582;29;20179;-74
2021/08/01 12:30:04;;;;;;;4.60;3.30;;;17.90;96.30;;;;;;4955571;29;20827;-72
2021/08/01 12:32:39;;;;;;;6.83;3.17;;;17.70;96.30;;;;;;4954705;29;20474;-72
2021/08/01 12:35:14;;;;;;;3.20;2.90;;;17.70;96.30;;;;;;4955454;29;20434;-76
2021/08/01 12:37:47;;;;;;;5.97;3.60;;;17.90;96.30;;;;;;4938086;29;20449;-73
2021/08/01 12:40:34;;;;;;;4.20;3.13;;;18.00;96.30;;;;;;4937904;29;20426;-73
2021/08/01 12:43:08;;;;;;;6.07;3.23;;;17.90;96.30;;;;;;4938790;29;20477;-73
2021/08/01 12:45:42;;;;;;;5.90;3.50;;;17.90;96.30;;;;;;4955154;29;20575;-73
2021/08/01 12:48:10;;;;;;;4.47;3.20;;;17.90;96.30;;;;;;4955071;29;20417;-73
2021/08/01 12:50:39;;;;;;;5.13;3.33;;;17.90;96.30;;;;;;4954441;28;20456;-72
2021/08/01 12:53:05;;;;;;;4.40;3.00;;;17.90;96.30;;;;;;4954500;29;20505;-73
2021/08/01 12:55:31;;;;;;;4.63;3.27;;;17.90;96.30;;;;;;4954947;29;21035;-72
2021/08/01 12:58:10;;;;;;;4.87;3.07;;;18.10;96.30;;;;;;4955013;29;20178;-73
2021/08/01 13:00:57;;;;;;;5.20;3.43;;;18.20;96.30;;;;;;4954725;29;20249;-73
2021/08/01 13:03:43;;;;;;;5.40;3.30;;;18.10;96.30;;;;;;4954396;29;20445;-73
2021/08/01 13:06:25;;;;;;;10.80;3.73;;;18.30;96.30;;;;;;4954772;29;20438;-73
2021/08/01 13:08:52;;;;;;;2.90;2.70;;;18.50;96.30;;;;;;4937612;29;20426;-73
2021/08/01 13:11:23;;;;;;;3.90;3.10;;;18.90;96.30;;;;;;4954725;29;20441;-75
2021/08/01 13:13:56;;;;;;;5.70;2.77;;;19.20;96.30;;;;;;4954687;29;20418;-73
2021/08/01 13:16:23;;;;;;;5.03;2.53;;;19.40;96.30;;;;;;4954521;29;20422;-74
2021/08/01 13:18:49;;;;;;;5.43;3.37;;;19.40;96.30;;;;;;4954612;29;20422;-72
2021/08/01 13:21:18;;;;;;;4.13;3.17;;;19.70;96.30;;;;;;4954539;29;20438;-73
2021/08/01 13:23:46;;;;;;;4.40;3.30;;;20.00;96.30;;;;;;4953699;29;20837;-76
2021/08/01 13:26:19;;;;;;;8.53;3.50;;;20.50;96.30;;;;;;4954439;29;20517;-73
2021/08/01 13:29:04;;;;;;;4.87;3.10;;;20.90;96.30;;;;;;4954497;29;20426;-73
2021/08/01 13:31:41;;;;;;;3.90;2.90;;;21.20;96.30;;;;;;4953766;29;20426;-73
2021/08/01 13:34:12;;;;;;;5.63;3.20;;;21.90;96.30;;;;;;4954416;29;20410;-73
2021/08/01 13:36:56;;;;;;;6.03;3.37;;;21.60;96.30;;;;;;4954274;29;20849;-73
2021/08/01 13:39:31;;;;;;;3.80;2.90;;;22.30;96.30;;;;;;4954388;29;20786;-73
2021/08/01 13:42:05;;;;;;;3.27;2.60;;;22.60;96.30;;;;;;4953711;29;20438;-76
2021/08/01 13:44:32;;;;;;;3.87;2.60;;;22.90;95.70;;;;;;4937000;29;20521;-73
2021/08/01 13:47:14;;;;;;;3.30;2.10;;;23.00;96.30;;;;;;4954144;29;20407;-73
2021/08/01 13:49:41;;;;;;;5.53;2.17;;;23.40;91.00;;;;;;4954422;29;20410;-73
2021/08/01 13:52:08;;;;;;;4.57;2.10;;;23.40;90.40;;;;;;4953647;29;20439;-75
2021/08/01 13:54:34;;;;;;;7.23;1.80;;;23.20;92.10;;;;;;4953867;29;20481;-74
2021/08/01 13:57:04;;;;;;;2.03;1.60;;;23.40;94.70;;;;;;4954125;29;20410;-74
2021/08/01 13:59:29;;;;;;;6.50;2.27;;;23.80;92.40;;;;;;4954511;29;20674;-74
2021/08/01 14:01:55;;;;;;;2.00;1.77;;;;;;;;;;4953194;29;20466;-77
2021/08/01 14:04:21;;;;;;;4.43;2.40;;;;;;;;;;4953535;29;20198;-73
2021/08/01 14:06:47;;;;;;;2.57;2.10;;;;;;;;;;4954057;29;20674;-73
2021/08/01 14:09:13;;;;;;;2.70;1.90;;;;;;;;;;4954058;29;20175;-73
2021/08/01 14:11:38;;;;;;;3.13;1.83;;;23.80;95.00;;;;;;4953446;29;20195;-74
2021/08/01 14:14:04;;;;;;;2.83;2.23;;;24.10;92.40;;;;;;4936830;29;20182;-74
2021/08/01 14:16:30;;;;;;;2.00;1.90;;;23.80;86.70;;;;;;4953838;29;20206;-76
2021/08/01 14:18:56;;;;;;;2.20;1.90;;;;;;;;;;4953875;29;20171;-74
2021/08/01 14:21:21;;;;;;;8.60;2.30;;;;;;;;;;4936516;29;20277;-73
2021/08/01 14:23:47;;;;;;;6.63;2.27;;;24.30;90.10;;;;;;4953448;29;20635;-74
2021/08/01 14:26:13;;;;;;;2.33;1.67;;;23.60;90.70;;;;;;4937175;29;20204;-73
2021/08/01 14:28:40;;;;;;;3.93;1.90;;;23.90;91.30;;;;;;4934966;29;20252;-74
2021/08/01 14:31:06;;;;;;;4.97;1.80;;;23.20;89.30;;;;;;4934523;29;20490;-73
2021/08/01 14:33:35;;;;;;;2.97;1.47;;;24.00;91.00;;;;;;4934199;29;20423;-74
2021/08/01 14:36:00;;;;;;;1.50;1.40;;;23.90;90.70;;;;;;4934643;29;20183;-75
2021/08/01 14:38:27;;;;;;;1.90;1.70;;;24.30;89.90;;;;;;4934661;29;20427;-74
2021/08/01 14:40:52;;;;;;;2.60;1.50;;;25.10;85.70;;;;;;4934587;29;20230;-74
2021/08/01 14:43:20;;;;;;;3.40;1.70;;;25.70;84.70;;;;;;4934024;29;20419;-74
2021/08/01 14:45:47;;;;;;;2.47;1.70;;;26.30;77.90;;;;;;4934425;29;20253;-74
2021/08/01 14:48:15;;;;;;;2.27;1.50;;;25.50;78.60;;;;;;4917340;29;20419;-75
2021/08/01 14:50:42;;;;;;;4.07;1.70;;;24.00;82.50;;;;;;4934472;29;20435;-74
2021/08/01 14:53:12;;;;;;;3.30;1.47;;;23.80;83.90;;;;;;4934065;29;20922;-74
2021/08/01 14:55:46;;;;;;;1.30;1.00;;;24.00;85.80;;;;;;4934710;29;20502;-75
2021/08/01 14:58:28;;;;;;;2.20;1.53;;;24.30;87.70;;;;;;4934454;29;20470;-74
2021/08/01 15:01:04;;;;;;;3.20;1.30;;;25.20;82.40;;;;;;4934077;29;20462;-74
2021/08/01 15:03:42;;;;;;;2.30;1.57;;;25.30;89.60;;;;;;4934318;29;20899;-75
2021/08/01 15:06:08;;;;;;;3.17;1.57;;;25.20;82.60;;;;;;4917564;29;20834;-74
2021/08/01 15:08:45;;;;;;;3.30;1.20;;;25.20;86.30;;;;;;4934723;29;20415;-77
2021/08/01 15:11:13;;;;;;;1.77;1.00;;;;;;;;;;4934957;29;20534;-74
2021/08/01 15:13:50;;;;;;;3.07;1.30;;;24.90;81.10;;;;;;4934594;29;20411;-74
2021/08/01 15:16:16;;;;;;;1.40;1.23;;;;;;;;;;4938245;29;20569;-75
2021/08/01 15:18:49;;;;;;;1.53;1.30;;;24.10;83.20;;;;;;4938207;29;20918;-77
2021/08/01 15:21:16;;;;;;;1.63;1.30;;;23.90;81.90;;;;;;4937955;29;20207;-73
2021/08/01 15:24:06;;;;;;;2.27;1.33;;;24.10;82.10;;;;;;4937608;29;20502;-75
2021/08/01 15:26:33;;;;;;;1.90;1.37;;;24.00;80.10;;;;;;4925891;29;20427;-73
2021/08/01 15:29:01;;;;;;;2.43;1.40;;;24.00;82.30;;;;;;4937913;29;20546;-75
2021/08/01 15:31:28;;;;;;;1.50;1.37;;;24.00;83.50;;;;;;4920206;29;20510;-74
2021/08/01 15:33:57;;;;;;;2.30;1.20;;;23.90;82.00;;;;;;4938009;29;20446;-74
2021/08/01 15:36:24;;;;;;;1.63;1.30;;;23.70;84.20;;;;;;4937842;29;20463;-74
2021/08/01 15:38:50;;;;;;;1.57;1.23;;;23.80;83.50;;;;;;4920625;29;20919;-74
2021/08/01 15:41:16;;;;;;;2.67;1.43;;;23.30;83.30;;;;;;4937637;29;20427;-74
2021/08/01 15:43:42;;;;;;;3.57;1.30;;;22.70;87.30;;;;;;4920100;29;20183;-74
2021/08/01 15:46:09;;;;;;;3.60;1.47;;;22.60;88.30;;;;;;4937635;29;20207;-73
2021/08/01 15:48:35;;;;;;;1.57;1.30;;;;;;;;;;4937664;29;20563;-74
2021/08/01 15:51:02;;;;;;;3.00;1.40;;;22.00;91.50;;;;;;4937351;29;20956;-75
2021/08/01 15:53:44;;;;;;;1.43;1.03;;;21.80;92.30;;;;;;4936697;29;20226;-73
2021/08/01 15:56:13;;;;;;;2.03;1.20;;;21.70;94.50;;;;;;4937393;29;20419;-73
2021/08/01 15:58:56;;;;;;;1.53;1.20;;;21.30;94.80;;;;;;4936885;29;20427;-73
2021/08/01 16:01:49;;;;;;;3.80;2.10;;;21.10;96.30;;;;;;4936666;29;20537;-73
2021/08/01 16:04:42;;;;;;;1.57;1.43;;;21.00;96.30;;;;;;4937092;29;20436;-73
2021/08/01 16:07:10;;;;;;;4.83;1.40;;;20.90;96.30;;;;;;4937163;29;20400;-73
2021/08/01 16:10:05;;;;;;;2.57;1.30;;;20.80;96.30;;;;;;4937163;29;20423;-73
2021/08/01 16:12:36;;;;;;;1.80;1.43;;;20.70;96.30;;;;;;4936583;29;20506;-74
2021/08/01 16:15:07;;;;;;;2.07;1.20;;;20.60;96.30;;;;;;4920995;29;20827;-74
2021/08/01 16:17:41;;;;;;;2.00;1.50;;;20.70;96.30;;;;;;4936162;29;20464;-77
2021/08/01 16:20:08;;;;;;;1.40;1.30;;;21.00;96.30;;;;;;4935152;29;20432;-76
2021/08/01 16:22:39;;;;;;;43.83;2.30;;;21.00;96.30;;;;;;5178514;23;20505;-76
2021/08/01 16:25:07;;;;;;;2.40;1.57;;;21.10;96.00;;;;;;4974362;28;20462;-76
2021/08/01 16:27:33;;;;;;;2.00;1.47;;;21.30;95.90;;;;;;4972838;28;20416;-76
2021/08/01 16:30:01;;;;;;;4.20;1.37;;;21.50;96.30;;;;;;4974597;28;20410;-76
2021/08/01 16:32:27;;;;;;;10.13;1.70;;;21.50;96.30;;;;;;4973943;28;20197;-76
2021/08/01 16:34:56;;;;;;;1.33;1.10;;;21.50;96.30;;;;;;4974352;28;20898;-76
2021/08/01 16:37:22;;;;;;;3.00;1.80;;;;;;;;;;4974438;28;20410;-76
2021/08/01 16:39:48;;;;;;;2.40;1.30;;;21.40;96.30;;;;;;4974642;28;20830;-77
2021/08/01 16:42:32;;;;;;;4.03;1.40;;;21.30;95.10;;;;;;4974024;28;20202;-77
2021/08/01 16:45:06;;;;;;;2.90;1.57;;;21.10;96.30;;;;;;4974388;28;20658;-75
2021/08/01 16:48:09;;;;;;;2.17;1.80;;;20.90;96.30;;;;;;4974407;28;20500;-76
2021/08/01 16:50:43;;;;;;;1.97;1.50;;;20.60;96.30;;;;;;4974475;28;20463;-76
2021/08/01 16:53:32;;;;;;;2.27;1.70;;;20.50;96.30;;;;;;4973831;28;20421;-75
2021/08/01 16:56:16;;;;;;;8.47;1.40;;;20.50;96.30;;;;;;4974280;28;20394;-75
2021/08/01 16:58:48;;;;;;;7.23;1.83;;;20.40;96.30;;;;;;4974188;28;20409;-75
2021/08/01 17:01:30;;;;;;;1.60;1.40;;;20.20;96.30;;;;;;4956907;28;20800;-74
2021/08/01 17:04:03;;;;;;;2.30;1.40;;;20.10;96.30;;;;;;4949926;28;20410;-75
2021/08/01 17:06:42;;;;;;;2.00;1.33;;;20.00;96.30;;;;;;4943793;29;20471;-76